Time;durP1;ratioP1;P1;durP2;ratioP2;P2;SDS_P1;SDS_P2;PMS_P1;PMS_P2;Temp;Humidity;BMP_temperature;BMP_pressure;BME280_temperature;BME280_humidity;BME280_pressure;Samples;Min_cycle;Max_cycle;Signal;HPM_P1;HPM_P2
2022/04/30 00:00:00;;;;;;;0.90;0.35;;;;;;;23.78;56.19;102838.53;5058525;28;20053;-67
2022/04/30 00:02:25;;;;;;;0.63;0.30;;;;;;;23.79;55.54;102837.50;5055471;28;20475;-68
2022/04/30 00:04:50;;;;;;;0.80;0.30;;;;;;;23.77;56.32;102834.06;5054358;28;20629;-68
2022/04/30 00:07:19;;;;;;;0.43;0.32;;;;;;;23.78;55.52;102833.03;5053962;28;20032;-68
2022/04/30 00:09:47;;;;;;;2.80;0.40;;;;;;;23.76;56.52;102837.81;5054066;28;20063;-68
2022/04/30 00:12:12;;;;;;;0.75;0.20;;;;;;;23.75;56.15;102836.97;5053929;28;20039;-68
2022/04/30 00:14:39;;;;;;;1.30;0.20;;;;;;;23.75;55.89;102847.09;5053865;28;20025;-68
2022/04/30 00:17:05;;;;;;;2.55;0.50;;;;;;;23.73;55.92;102844.50;5053934;28;20021;-68
2022/04/30 00:19:31;;;;;;;0.30;0.20;;;;;;;23.74;55.96;102828.88;5052409;28;20036;-68
2022/04/30 00:21:56;;;;;;;1.25;0.38;;;;;;;23.73;55.39;102832.66;5053162;28;20036;-68
2022/04/30 00:24:23;;;;;;;0.95;0.40;;;;;;;23.70;55.74;102834.69;5053446;28;20040;-68
2022/04/30 00:26:48;;;;;;;1.42;0.35;;;;;;;23.69;55.67;102830.22;5060369;28;20017;-68
2022/04/30 00:29:14;;;;;;;2.30;0.40;;;;;;;23.74;55.75;102842.63;5053583;28;20048;-68
2022/04/30 00:31:40;;;;;;;2.30;0.20;;;;;;;23.72;55.78;102841.91;5053536;28;20039;-68
2022/04/30 00:34:05;;;;;;;0.50;0.30;;;;;;;23.72;55.84;102841.91;5057682;28;20143;-66
2022/04/30 00:36:31;;;;;;;0.63;0.28;;;;;;;23.70;56.34;102833.84;5053167;28;20032;-68
2022/04/30 00:38:56;;;;;;;1.35;0.50;;;;;;;23.70;55.83;102829.22;5052102;28;20384;-68
2022/04/30 00:41:23;;;;;;;0.57;0.20;;;;;;;23.69;55.70;102822.00;5053258;28;20039;-68
2022/04/30 00:43:50;;;;;;;1.10;0.38;;;;;;;23.70;56.09;102834.69;5053318;28;20387;-68
2022/04/30 00:46:18;;;;;;;1.48;0.35;;;;;;;23.70;56.00;102829.22;5051917;28;20131;-68
2022/04/30 00:48:44;;;;;;;0.80;0.30;;;;;;;23.70;56.28;102825.59;5053278;28;20029;-68
2022/04/30 00:51:14;;;;;;;1.52;0.30;;;;;;;23.67;55.78;102828.63;5053220;28;20025;-68
2022/04/30 00:53:41;;;;;;;0.80;0.40;;;;;;;23.68;55.33;102833.09;5053131;28;20380;-68
2022/04/30 00:56:12;;;;;;;2.20;0.38;;;;;;;23.68;55.57;102836.75;5053450;28;20423;-68
2022/04/30 00:58:42;;;;;;;0.90;0.35;;;;;;;23.67;56.35;102835.00;5052828;28;20029;-68
2022/04/30 01:01:08;;;;;;;1.38;0.30;;;;;;;23.66;55.95;102833.28;5053176;28;20490;-68
2022/04/30 01:03:33;;;;;;;1.35;0.45;;;;;;;23.67;56.22;102831.38;5055255;28;20025;-68
2022/04/30 01:06:00;;;;;;;0.65;0.13;;;;;;;23.66;56.20;102827.78;5055509;28;20021;-68
2022/04/30 01:08:29;;;;;;;1.45;0.50;;;;;;;23.66;56.09;102818.69;5052806;28;20047;-68
2022/04/30 01:11:06;;;;;;;0.47;0.22;;;;;;;23.65;55.86;102820.56;5052889;28;20033;-68
2022/04/30 01:13:34;;;;;;;2.15;0.35;;;;;;;23.64;55.56;102817.97;5052739;28;20435;-68
2022/04/30 01:16:03;;;;;;;0.80;0.22;;;;;;;23.64;56.54;102817.97;5052892;28;20048;-68
2022/04/30 01:18:29;;;;;;;0.88;0.30;;;;;;;23.67;55.87;102820.41;5051342;28;20037;-68
2022/04/30 01:20:58;;;;;;;1.58;0.30;;;;;;;23.63;56.31;102822.59;5052737;28;20025;-68
2022/04/30 01:23:26;;;;;;;0.60;0.20;;;;;;;23.63;56.25;102813.50;5052468;28;20116;-68
2022/04/30 01:25:53;;;;;;;0.80;0.43;;;;;;;23.64;56.20;102824.34;5052680;28;20104;-68
2022/04/30 01:28:19;;;;;;;0.60;0.40;;;;;;;23.61;56.12;102819.16;5052582;28;20025;-68
2022/04/30 01:30:45;;;;;;;0.35;0.20;;;;;;;23.62;56.13;102815.41;5052602;28;20031;-68
2022/04/30 01:38:40;;;;;;;1.80;0.30;;;;;;;23.62;56.11;102809.91;5052727;28;20491;-68
2022/04/30 01:41:05;;;;;;;1.70;0.90;;;;;;;23.62;55.91;102809.03;5051329;28;20025;-68
2022/04/30 01:43:33;;;;;;;1.13;0.28;;;;;;;23.63;55.64;102806.13;5052246;28;20480;-68
2022/04/30 01:45:58;;;;;;;0.77;0.40;;;;;;;23.63;56.59;102811.63;5052929;28;20048;-68
2022/04/30 01:48:23;;;;;;;1.20;0.25;;;;;;;23.59;56.14;102802.00;5052224;28;20271;-68
2022/04/30 01:50:49;;;;;;;1.25;0.47;;;;;;;23.60;56.10;102806.47;5052504;28;20079;-68
2022/04/30 01:53:15;;;;;;;0.57;0.40;;;;;;;23.61;56.45;102799.94;5052318;28;20479;-68
2022/04/30 01:55:40;;;;;;;1.42;0.47;;;;;;;23.60;56.00;102795.47;5052280;28;20039;-68
2022/04/30 01:58:06;;;;;;;0.82;0.20;;;;;;;23.58;56.16;102792.03;5052707;28;20029;-68
2022/04/30 02:00:32;;;;;;;1.08;0.30;;;;;;;23.58;55.88;102792.03;5052077;28;20037;-68
2022/04/30 02:03:08;;;;;;;1.02;0.40;;;;;;;23.57;55.74;102783.97;5052234;28;20027;-67
2022/04/30 02:05:35;;;;;;;0.98;0.40;;;;;;;23.58;55.53;102791.16;5050918;28;20103;-68
2022/04/30 02:08:05;;;;;;;1.15;0.45;;;;;;;23.60;56.25;102787.25;5052327;28;20025;-67
2022/04/30 02:10:34;;;;;;;2.97;0.47;;;;;;;23.60;55.97;102784.50;5053465;28;20025;-68
2022/04/30 02:13:00;;;;;;;1.45;0.68;;;;;;;23.57;56.26;102787.56;5050939;28;20460;-68
2022/04/30 02:15:27;;;;;;;1.40;0.30;;;;;;;23.57;55.67;102787.56;5050768;28;20083;-68
2022/04/30 02:17:53;;;;;;;1.08;0.30;;;;;;;23.58;56.41;102783.78;5052131;28;20502;-68
2022/04/30 02:20:27;;;;;;;0.30;0.20;;;;;;;23.57;55.99;102784.81;5052299;28;20464;-68
2022/04/30 02:22:56;;;;;;;1.27;0.30;;;;;;;23.59;56.37;102782.78;5052135;28;20530;-68
2022/04/30 02:25:22;;;;;;;2.47;0.57;;;;;;;23.56;56.09;102783.06;5051936;28;20040;-68
2022/04/30 02:27:51;;;;;;;0.50;0.20;;;;;;;23.56;55.87;102787.69;5052119;28;20079;-68
2022/04/30 02:30:17;;;;;;;1.42;0.40;;;;;;;23.55;56.12;102792.31;5053135;28;20031;-68
2022/04/30 02:32:48;;;;;;;1.38;0.45;;;;;;;23.54;56.35;102785.09;5052053;28;20108;-68
2022/04/30 02:35:19;;;;;;;0.25;0.20;;;;;;;23.55;56.38;102773.09;5050623;28;20467;-68
2022/04/30 02:37:45;;;;;;;1.80;0.57;;;;;;;23.55;56.25;102786.84;5051968;28;20060;-68
2022/04/30 02:40:15;;;;;;;0.50;0.20;;;;;;;23.55;56.50;102783.22;5052185;28;20357;-68
2022/04/30 02:42:41;;;;;;;0.40;0.20;;;;;;;23.53;56.25;102766.91;5052227;28;20480;-67
2022/04/30 02:45:09;;;;;;;1.10;0.30;;;;;;;23.55;56.46;102781.34;5057721;28;20461;-67
2022/04/30 02:47:38;;;;;;;1.85;0.47;;;;;;;23.54;55.98;102779.63;5055699;28;20021;-67
2022/04/30 02:50:06;;;;;;;1.27;0.30;;;;;;;23.55;55.72;102781.34;5055553;28;20036;-68
2022/04/30 02:52:31;;;;;;;2.47;0.40;;;;;;;23.53;55.89;102779.78;5055382;28;20024;-68
2022/04/30 02:54:56;;;;;;;0.52;0.30;;;;;;;23.53;55.83;102766.06;5055455;28;20088;-68
2022/04/30 02:57:22;;;;;;;1.65;0.22;;;;;;;23.52;56.02;102767.94;5055216;28;20044;-68
2022/04/30 02:59:53;;;;;;;1.27;0.40;;;;;;;23.51;56.41;102768.94;5053943;28;20048;-68
2022/04/30 03:02:18;;;;;;;0.30;0.20;;;;;;;23.52;56.43;102765.19;5053873;28;20021;-68
2022/04/30 03:04:43;;;;;;;1.35;0.30;;;;;;;23.52;55.87;102764.34;5055222;28;20066;-68
2022/04/30 03:07:11;;;;;;;0.47;0.30;;;;;;;23.53;55.90;102760.56;5058062;28;20051;-68
2022/04/30 03:09:38;;;;;;;1.73;0.50;;;;;;;23.55;56.79;102769.50;5055055;28;20028;-68
2022/04/30 03:12:04;;;;;;;0.88;0.20;;;;;;;23.52;55.96;102759.69;5055281;28;20025;-68
2022/04/30 03:14:29;;;;;;;0.65;0.22;;;;;;;23.54;55.80;102765.03;5054950;28;20096;-68
2022/04/30 03:22:33;;;;;;;;;;;;;;;23.50;55.92;102760.84;5014846;28;20032;-68
2022/04/30 03:24:59;;;;;;;0.55;0.38;;;;;;;23.51;56.03;102751.59;5012787;28;20319;-68
2022/04/30 03:27:24;;;;;;;0.73;0.38;;;;;;;23.50;56.44;102761.72;5012503;28;20071;-68
2022/04/30 03:29:49;;;;;;;1.48;0.30;;;;;;;23.50;56.77;102761.72;5012700;28;20452;-68
2022/04/30 03:32:15;;;;;;;0.57;0.35;;;;;;;23.51;56.37;102757.09;5012457;28;20026;-68
2022/04/30 03:34:40;;;;;;;0.35;0.25;;;;;;;23.52;56.52;102753.34;5012537;28;20168;-68
2022/04/30 03:37:05;;;;;;;1.52;0.32;;;;;;;23.47;55.88;102753.81;5012600;28;20141;-68
2022/04/30 03:39:30;;;;;;;0.68;0.15;;;;;;;23.49;56.62;102749.00;4996003;28;20080;-68
2022/04/30 03:41:56;;;;;;;1.95;0.40;;;;;;;23.50;55.98;102755.38;5012545;28;20029;-68
2022/04/30 03:44:21;;;;;;;1.08;0.40;;;;;;;23.48;56.32;102752.78;5012094;28;20041;-68
2022/04/30 03:46:46;;;;;;;1.60;0.50;;;;;;;23.50;56.47;102752.63;5012474;28;20021;-68
2022/04/30 03:49:12;;;;;;;1.05;0.50;;;;;;;23.47;56.34;102755.69;5014869;28;20033;-68
2022/04/30 03:51:37;;;;;;;1.42;0.50;;;;;;;23.47;56.40;102756.56;5012240;28;20092;-68
2022/04/30 03:54:03;;;;;;;1.75;0.20;;;;;;;23.46;56.08;102762.19;5012292;28;20021;-68
2022/04/30 03:56:28;;;;;;;3.17;0.85;;;;;;;23.49;56.52;102751.75;5029447;28;20116;-67
2022/04/30 03:58:54;;;;;;;0.45;0.10;;;;;;;23.47;56.54;102755.69;5059255;28;20052;-66
2022/04/30 04:01:21;;;;;;;0.90;0.47;;;;;;;23.48;56.49;102747.28;5054728;28;20596;-68
2022/04/30 04:03:48;;;;;;;1.95;0.30;;;;;;;23.59;56.00;102747.06;5054157;28;20419;-68
2022/04/30 04:06:13;;;;;;;0.40;0.20;;;;;;;23.66;56.25;102750.03;5054092;28;20039;-68
2022/04/30 04:08:39;;;;;;;0.80;0.15;;;;;;;23.72;55.50;102745.78;5054063;28;20025;-68
2022/04/30 04:11:10;;;;;;;0.82;0.35;;;;;;;23.78;56.19;102742.38;5054284;28;20448;-68
2022/04/30 04:19:03;;;;;;;2.72;0.35;;;;;;;23.89;56.48;102753.13;5053989;28;20032;-68
2022/04/30 04:21:29;;;;;;;0.68;0.20;;;;;;;23.88;55.78;102751.41;5053691;28;20025;-68
2022/04/30 04:26:38;;;;;;;0.30;0.30;;;;;;;23.95;56.15;102753.31;5059990;28;20028;-68
2022/04/30 04:29:03;;;;;;;0.65;0.30;;;;;;;23.94;55.70;102747.97;5053837;28;20036;-68
2022/04/30 04:31:28;;;;;;;0.85;0.30;;;;;;;23.96;56.85;102755.03;5053719;28;20024;-68
2022/04/30 04:33:54;;;;;;;0.95;0.30;;;;;;;24.01;56.83;102749.03;5058452;28;20379;-66
2022/04/30 04:36:19;;;;;;;1.05;0.40;;;;;;;24.01;56.83;102754.53;5054571;28;20474;-67
2022/04/30 04:38:45;;;;;;;1.17;0.32;;;;;;;24.03;57.45;102747.03;5053424;28;20033;-68
2022/04/30 04:41:10;;;;;;;0.75;0.20;;;;;;;24.04;57.15;102742.38;5053415;28;20024;-68
2022/04/30 04:43:36;;;;;;;0.75;0.32;;;;;;;24.06;57.48;102749.44;5053276;28;20036;-67
2022/04/30 04:46:02;;;;;;;1.45;0.30;;;;;;;24.04;57.14;102759.72;5053369;28;20071;-67
2022/04/30 04:48:31;;;;;;;0.95;0.20;;;;;;;24.08;57.26;102750.13;5051939;28;20017;-68
2022/04/30 04:50:57;;;;;;;0.65;0.20;;;;;;;24.06;57.51;102746.69;5053561;28;20534;-67
2022/04/30 04:53:22;;;;;;;1.35;0.40;;;;;;;24.09;57.16;102746.34;5052024;28;20020;-67
2022/04/30 04:55:47;;;;;;;1.02;0.45;;;;;;;24.07;57.14;102753.91;5051912;28;20046;-67
2022/04/30 04:58:13;;;;;;;1.42;0.40;;;;;;;24.10;57.63;102742.59;5053020;28;20071;-68
2022/04/30 05:00:38;;;;;;;0.60;0.28;;;;;;;24.13;57.27;102742.25;5052918;28;20049;-68
2022/04/30 05:03:04;;;;;;;0.80;0.30;;;;;;;24.10;57.29;102734.34;5053017;28;20380;-68
2022/04/30 05:05:29;;;;;;;0.77;0.30;;;;;;;24.13;57.26;102742.25;5051626;28;20044;-67
2022/04/30 05:07:54;;;;;;;0.35;0.20;;;;;;;24.10;57.71;102739.84;5057696;28;20029;-67
2022/04/30 05:10:20;;;;;;;1.58;0.68;;;;;;;24.11;57.34;102733.31;5056044;28;20335;-68
2022/04/30 05:12:46;;;;;;;0.60;0.30;;;;;;;24.16;57.63;102733.66;5052909;28;20376;-67
2022/04/30 05:15:12;;;;;;;1.20;0.40;;;;;;;24.16;58.39;102747.41;5052783;28;20025;-68
2022/04/30 05:17:37;;;;;;;1.65;0.80;;;;;;;24.17;57.99;102737.28;5052742;28;20032;-68
2022/04/30 05:20:04;;;;;;;0.93;0.40;;;;;;;24.21;58.50;102733.19;5052814;28;20025;-67
2022/04/30 05:22:29;;;;;;;0.55;0.30;;;;;;;24.19;58.41;102727.00;5051388;28;20067;-67
2022/04/30 05:24:54;;;;;;;0.77;0.30;;;;;;;24.15;58.46;102722.84;5052582;28;20025;-67
2022/04/30 05:27:19;;;;;;;1.70;0.63;;;;;;;24.19;58.35;102719.63;5052562;28;20491;-67
2022/04/30 05:29:45;;;;;;;0.63;0.20;;;;;;;24.18;58.13;102726.13;5052602;28;20062;-68
2022/04/30 05:32:10;;;;;;;0.60;0.35;;;;;;;24.19;58.81;102722.38;5052627;28;20028;-67
2022/04/30 05:34:35;;;;;;;0.17;0.17;;;;;;;24.22;58.42;102722.03;5052484;28;20013;-67
2022/04/30 05:37:01;;;;;;;0.85;0.30;;;;;;;24.22;58.23;102724.78;5052880;28;20032;-68
2022/04/30 05:39:26;;;;;;;0.22;0.20;;;;;;;24.25;58.98;102716.19;5052099;28;20115;-66
2022/04/30 05:41:51;;;;;;;1.90;0.40;;;;;;;24.22;57.88;102723.91;5057058;28;20032;-67
2022/04/30 05:44:17;;;;;;;0.85;0.20;;;;;;;24.18;58.90;102723.38;5052374;28;20112;-67
2022/04/30 05:46:42;;;;;;;0.68;0.15;;;;;;;24.24;58.87;102728.22;5053718;28;20357;-65
2022/04/30 05:49:07;;;;;;;1.63;0.73;;;;;;;24.26;58.55;102726.16;5058129;28;20021;-67
2022/04/30 05:51:33;;;;;;;1.98;0.38;;;;;;;24.26;58.43;102728.91;5051274;28;20414;-68
2022/04/30 05:53:58;;;;;;;1.05;0.38;;;;;;;24.23;58.99;102721.00;5052503;28;20024;-67
2022/04/30 05:56:23;;;;;;;1.45;0.25;;;;;;;24.25;58.60;102724.44;5052172;28;20524;-67
2022/04/30 05:58:49;;;;;;;0.82;0.32;;;;;;;24.27;58.76;102722.38;5050937;28;20017;-67
2022/04/30 06:01:14;;;;;;;0.45;0.20;;;;;;;24.28;59.05;102729.59;5052323;28;20028;-67
2022/04/30 06:03:40;;;;;;;1.92;0.38;;;;;;;24.26;58.45;102726.16;5052092;28;20040;-67
2022/04/30 06:06:05;;;;;;;0.30;0.20;;;;;;;24.26;58.43;102723.41;5052387;28;20063;-67
2022/04/30 06:08:31;;;;;;;0.88;0.25;;;;;;;24.27;58.70;102736.13;5054253;28;20059;-66
2022/04/30 06:10:57;;;;;;;0.45;0.20;;;;;;;24.28;59.43;102721.34;5053044;28;20028;-67
2022/04/30 06:13:22;;;;;;;0.50;0.17;;;;;;;24.29;59.64;102720.38;5052022;28;20021;-68
2022/04/30 06:15:48;;;;;;;0.30;0.13;;;;;;;24.30;59.51;102722.09;5052217;28;20032;-67
2022/04/30 06:18:15;;;;;;;0.47;0.17;;;;;;;24.27;59.77;102727.88;5052132;28;20539;-67
2022/04/30 06:20:40;;;;;;;1.25;0.55;;;;;;;24.27;59.43;102727.88;5054373;28;20119;-68
2022/04/30 06:23:06;;;;;;;0.60;0.40;;;;;;;24.29;59.20;102716.75;5056593;28;20029;-67
2022/04/30 06:25:31;;;;;;;1.75;0.38;;;;;;;24.30;59.23;102722.09;5054595;28;20392;-67
2022/04/30 06:27:57;;;;;;;0.30;0.30;;;;;;;24.28;59.26;102713.09;5056011;28;20400;-67
2022/04/30 06:30:23;;;;;;;0.30;0.30;;;;;;;24.32;59.28;102712.81;5056614;28;20029;-64
2022/04/30 06:32:48;;;;;;;0.60;0.20;;;;;;;24.33;59.78;102714.53;5058111;28;20033;-67
2022/04/30 06:35:13;;;;;;;0.50;0.30;;;;;;;24.32;59.85;102712.81;5055812;28;20060;-67
2022/04/30 06:37:39;;;;;;;0.65;0.10;;;;;;;24.32;59.74;102712.81;5055608;28;20063;-67
2022/04/30 06:40:05;;;;;;;0.52;0.30;;;;;;;24.32;59.97;102710.06;5059393;28;20021;-67
2022/04/30 06:42:46;;;;;;;1.63;0.38;;;;;;;24.32;59.91;102680.69;5055283;28;20025;-68
2022/04/30 06:45:12;;;;;;;0.85;0.30;;;;;;;24.36;59.82;102692.22;5054303;28;20028;-68
2022/04/30 06:47:39;;;;;;;0.65;0.50;;;;;;;24.38;60.47;102690.16;5055526;28;20029;-68
2022/04/30 06:50:06;;;;;;;0.20;0.10;;;;;;;24.36;60.64;102697.72;5054292;28;20029;-67
2022/04/30 06:52:31;;;;;;;2.17;0.20;;;;;;;24.39;61.46;102692.75;5055401;28;20603;-67
2022/04/30 06:57:43;;;;;;;0.80;0.10;;;;;;;24.40;61.71;102685.34;5055458;28;20047;-68
2022/04/30 07:02:55;;;;;;;0.73;0.35;;;;;;;24.42;61.26;102680.56;5055670;28;20110;-68
2022/04/30 07:05:20;;;;;;;0.13;0.13;;;;;;;24.43;61.25;102690.50;5055074;28;20025;-67
2022/04/30 07:07:46;;;;;;;1.15;0.35;;;;;;;24.44;61.61;102684.00;5055298;28;20388;-67
2022/04/30 07:10:11;;;;;;;0.57;0.20;;;;;;;24.42;61.75;102673.16;5055372;28;20373;-67
2022/04/30 07:12:36;;;;;;;0.50;0.20;;;;;;;24.40;62.13;102682.59;5054097;28;20503;-68
2022/04/30 07:15:02;;;;;;;0.47;0.35;;;;;;;24.45;62.54;102681.06;5055240;28;20024;-67
2022/04/30 07:17:27;;;;;;;0.43;0.30;;;;;;;24.44;62.02;102684.84;5058722;28;20032;-67
2022/04/30 07:19:52;;;;;;;0.70;0.40;;;;;;;24.44;62.50;102686.75;5055327;28;20025;-67
2022/04/30 07:22:17;;;;;;;1.65;0.40;;;;;;;24.48;62.14;102685.38;5054877;28;20029;-67
2022/04/30 07:24:43;;;;;;;1.30;0.30;;;;;;;24.50;62.30;102683.31;5054888;28;20111;-68
2022/04/30 07:27:09;;;;;;;0.45;0.20;;;;;;;24.48;63.00;102685.38;5054953;28;20036;-67
2022/04/30 07:29:36;;;;;;;0.55;0.30;;;;;;;24.50;63.10;102684.16;5054748;28;20029;-67
2022/04/30 07:32:02;;;;;;;1.42;0.40;;;;;;;24.47;62.84;102676.25;5054822;28;20422;-68
2022/04/30 07:34:27;;;;;;;0.35;0.35;;;;;;;24.50;62.62;102680.56;5053267;28;20013;-67
2022/04/30 07:36:53;;;;;;;0.75;0.30;;;;;;;24.51;62.61;102665.78;5054784;28;20028;-68
2022/04/30 07:39:18;;;;;;;0.52;0.40;;;;;;;24.52;62.78;102676.63;5053228;28;20063;-68
2022/04/30 07:41:44;;;;;;;0.28;0.20;;;;;;;24.52;62.52;102664.75;5055313;28;20025;-66
2022/04/30 07:44:10;;;;;;;0.30;0.20;;;;;;;24.50;62.77;102669.56;5055447;28;20461;-67
2022/04/30 07:46:37;;;;;;;1.08;0.13;;;;;;;24.52;62.98;102659.25;5053404;28;20024;-67
2022/04/30 07:49:02;;;;;;;0.63;0.30;;;;;;;24.51;63.26;102665.78;5053261;28;20021;-67
2022/04/30 07:51:34;;;;;;;0.32;0.30;;;;;;;24.48;62.54;102664.22;5053096;28;20089;-67
2022/04/30 07:54:03;;;;;;;0.47;0.20;;;;;;;24.48;63.19;102660.63;5054499;28;20083;-67
2022/04/30 07:56:28;;;;;;;0.22;0.17;;;;;;;24.50;63.34;102661.31;5054286;28;20017;-67
2022/04/30 07:58:54;;;;;;;0.47;0.47;;;;;;;24.48;63.36;102657.88;5057390;28;20049;-67
2022/04/30 08:01:19;;;;;;;0.52;0.10;;;;;;;24.51;63.01;102654.78;5054112;28;20068;-67
2022/04/30 08:03:44;;;;;;;0.30;0.20;;;;;;;24.49;63.17;102662.34;5054133;28;20023;-67
2022/04/30 08:06:10;;;;;;;0.47;0.47;;;;;;;24.51;63.15;102654.78;5052889;28;20112;-67
2022/04/30 08:08:35;;;;;;;0.82;0.20;;;;;;;24.47;63.40;102658.91;5054012;28;20530;-67
2022/04/30 08:11:00;;;;;;;0.98;0.20;;;;;;;24.52;63.70;102653.75;5054105;28;20032;-67
2022/04/30 08:13:26;;;;;;;0.55;0.22;;;;;;;24.49;63.60;102649.44;5053982;28;20096;-66
2022/04/30 08:15:52;;;;;;;0.40;0.20;;;;;;;24.54;63.56;102657.22;5057079;28;20025;-67
2022/04/30 08:18:17;;;;;;;0.40;0.20;;;;;;;24.49;63.54;102657.69;5053850;28;20483;-67
2022/04/30 08:20:43;;;;;;;1.30;0.10;;;;;;;24.48;62.92;102647.72;5053800;28;20024;-67
2022/04/30 08:23:08;;;;;;;0.55;0.20;;;;;;;24.51;63.44;102652.88;5052504;28;20031;-67
2022/04/30 08:25:35;;;;;;;0.40;0.17;;;;;;;24.52;63.44;102648.25;5053615;28;20480;-67
2022/04/30 08:28:01;;;;;;;1.38;0.30;;;;;;;24.52;63.36;102648.25;5053770;28;20036;-67
2022/04/30 08:30:26;;;;;;;0.77;0.20;;;;;;;24.53;63.94;102650.00;5052290;28;20411;-67
2022/04/30 08:32:51;;;;;;;0.13;0.13;;;;;;;24.51;62.67;102646.53;5052441;28;20025;-67
2022/04/30 08:35:16;;;;;;;0.75;0.30;;;;;;;24.52;63.09;102643.63;5053478;28;20464;-68
2022/04/30 08:37:42;;;;;;;1.08;0.43;;;;;;;24.52;63.75;102638.13;5052080;28;20036;-67
2022/04/30 08:40:07;;;;;;;0.82;0.40;;;;;;;24.54;63.32;102636.06;5053509;28;20029;-67
2022/04/30 08:42:33;;;;;;;0.60;0.22;;;;;;;24.56;63.46;102641.41;5052714;28;20025;-67
2022/04/30 08:45:02;;;;;;;0.28;0.10;;;;;;;24.50;62.95;102634.66;5054142;28;20017;-66
2022/04/30 08:47:29;;;;;;;0.45;0.30;;;;;;;24.56;63.28;102638.66;5054558;28;20031;-67
2022/04/30 08:49:55;;;;;;;0.30;0.30;;;;;;;24.54;63.82;102632.47;5052074;28;20021;-67
2022/04/30 08:52:21;;;;;;;1.20;0.20;;;;;;;24.59;63.23;102630.06;5053087;28;20029;-67
2022/04/30 08:54:46;;;;;;;0.20;0.20;;;;;;;24.57;63.66;102629.38;5053269;28;20021;-68
2022/04/30 08:57:12;;;;;;;0.77;0.20;;;;;;;24.60;63.34;102634.53;5053144;28;20406;-67
2022/04/30 08:59:37;;;;;;;0.80;0.20;;;;;;;24.57;63.48;102632.13;5051614;28;20041;-67
2022/04/30 09:02:09;;;;;;;3.55;0.30;;;;;;;24.58;63.06;102633.84;5053110;28;20071;-67
2022/04/30 09:04:49;;;;;;;0.70;0.28;;;;;;;24.55;63.41;102631.44;5052867;28;20033;-68
2022/04/30 09:07:16;;;;;;;0.45;0.35;;;;;;;24.56;63.28;102627.66;5053011;28;20048;-67
2022/04/30 09:09:43;;;;;;;0.20;0.17;;;;;;;24.55;63.88;102620.44;5052903;28;20025;-67
2022/04/30 09:12:11;;;;;;;0.70;0.20;;;;;;;24.58;63.32;102620.09;5053060;28;20044;-67
2022/04/30 09:14:41;;;;;;;0.82;0.22;;;;;;;24.59;64.01;102621.81;5052626;28;20027;-67
2022/04/30 09:17:13;;;;;;;0.50;0.25;;;;;;;24.58;63.97;102620.94;5053301;28;20032;-67
2022/04/30 09:20:03;;;;;;;1.25;0.50;;;;;;;24.59;63.90;102610.81;5053208;28;20035;-67
2022/04/30 09:22:36;;;;;;;0.20;0.20;;;;;;;24.59;63.92;102608.06;5052851;28;20436;-67
2022/04/30 09:25:05;;;;;;;1.60;0.60;;;;;;;24.59;63.83;102611.66;5052774;28;20025;-67
2022/04/30 09:27:31;;;;;;;0.88;0.52;;;;;;;24.58;63.35;102604.44;5052981;28;20028;-67
2022/04/30 09:29:57;;;;;;;1.08;0.35;;;;;;;24.63;63.79;102603.94;5052726;28;20036;-67
2022/04/30 09:32:26;;;;;;;0.43;0.20;;;;;;;24.58;63.94;102603.59;5052492;28;20028;-67
2022/04/30 09:37:43;;;;;;;0.32;0.30;;;;;;;24.64;63.95;102597.41;5052607;28;20128;-67
2022/04/30 09:40:15;;;;;;;0.22;0.20;;;;;;;24.59;63.77;102602.56;5052573;28;20032;-67
2022/04/30 09:42:41;;;;;;;0.45;0.35;;;;;;;24.65;64.34;102596.38;5052542;28;20262;-67
2022/04/30 09:45:08;;;;;;;0.75;0.20;;;;;;;24.62;63.55;102593.97;5052476;28;20163;-67
2022/04/30 09:47:34;;;;;;;1.33;0.30;;;;;;;24.63;64.05;102601.19;5052322;28;20025;-67
2022/04/30 09:55:30;;;;;;;0.70;0.28;;;;;;;24.64;63.92;102591.91;5054415;28;20074;-67
2022/04/30 09:57:58;;;;;;;0.63;0.10;;;;;;;24.62;64.07;102591.22;5055275;28;20381;-67
2022/04/30 10:00:23;;;;;;;1.30;0.60;;;;;;;24.61;63.98;102586.75;5056197;28;20160;-67
2022/04/30 10:02:55;;;;;;;1.02;0.30;;;;;;;24.66;64.39;102576.09;5055698;28;20108;-65
2022/04/30 10:05:20;;;;;;;0.50;0.35;;;;;;;24.65;64.04;102577.13;5056238;28;20108;-68
2022/04/30 10:07:48;;;;;;;0.45;0.15;;;;;;;24.67;64.02;102568.69;5055195;28;20036;-68
2022/04/30 10:10:20;;;;;;;0.65;0.20;;;;;;;24.64;64.30;102564.41;5056313;28;20063;-68
2022/04/30 10:13:05;;;;;;;0.40;0.20;;;;;;;24.69;64.67;102561.13;5055074;28;20025;-67
2022/04/30 10:15:38;;;;;;;0.40;0.20;;;;;;;24.66;64.73;102556.81;5054859;28;20028;-67
2022/04/30 10:18:07;;;;;;;0.30;0.20;;;;;;;24.65;63.99;102554.25;5056284;28;20025;-67
2022/04/30 10:20:34;;;;;;;0.35;0.20;;;;;;;24.66;64.48;102554.06;5056097;28;20032;-67
2022/04/30 10:23:00;;;;;;;2.30;0.47;;;;;;;24.68;64.81;102542.91;5056995;28;20076;-66
2022/04/30 10:25:35;;;;;;;0.10;0.10;;;;;;;24.67;64.55;102544.78;5060887;28;20021;-67
2022/04/30 10:28:24;;;;;;;0.30;0.20;;;;;;;24.64;64.45;102542.41;5056272;28;20056;-68
2022/04/30 10:31:11;;;;;;;0.38;0.17;;;;;;;24.71;64.55;102545.34;5050286;28;20427;-67
2022/04/30 10:33:48;;;;;;;1.42;0.30;;;;;;;24.69;65.10;102534.50;5055799;28;20483;-67
2022/04/30 10:36:13;;;;;;;0.50;0.45;;;;;;;24.68;64.55;102532.75;5054556;28;20021;-68
2022/04/30 10:38:40;;;;;;;0.65;0.15;;;;;;;24.70;65.09;102530.72;5055699;28;20158;-68
2022/04/30 10:41:09;;;;;;;0.80;0.50;;;;;;;24.69;64.86;102523.50;5057673;28;20023;-67
2022/04/30 10:43:36;;;;;;;0.95;0.20;;;;;;;24.69;64.91;102520.75;5055639;28;20488;-67
2022/04/30 10:46:05;;;;;;;0.30;0.20;;;;;;;24.65;64.61;102516.59;5055699;28;20052;-67
2022/04/30 10:48:32;;;;;;;0.77;0.43;;;;;;;24.70;64.64;102514.22;5055512;28;20024;-68
2022/04/30 10:51:11;;;;;;;0.80;0.28;;;;;;;24.67;64.97;102509.03;5055656;28;20456;-67
2022/04/30 10:53:40;;;;;;;0.82;0.40;;;;;;;24.67;64.81;102517.28;5055785;28;20064;-68
2022/04/30 10:56:06;;;;;;;1.92;0.60;;;;;;;24.70;64.68;102507.88;5059974;28;20461;-67
2022/04/30 10:58:33;;;;;;;0.63;0.20;;;;;;;24.70;64.93;102513.38;5055451;28;20461;-67
2022/04/30 11:01:11;;;;;;;1.60;0.25;;;;;;;24.70;65.27;102497.72;5055345;28;20044;-68
2022/04/30 11:03:36;;;;;;;0.55;0.28;;;;;;;24.70;64.93;102492.22;5054195;28;20381;-66
2022/04/30 11:06:01;;;;;;;0.43;0.30;;;;;;;24.70;64.70;102492.22;5054968;28;20028;-68
2022/04/30 11:08:27;;;;;;;0.57;0.40;;;;;;;24.73;64.55;102491.00;5055209;28;20537;-67
2022/04/30 11:10:54;;;;;;;0.45;0.30;;;;;;;24.74;65.29;102499.09;5053990;28;20143;-68
2022/04/30 11:13:20;;;;;;;0.98;0.30;;;;;;;24.72;64.58;102497.53;5055144;28;20079;-67
2022/04/30 11:15:46;;;;;;;0.45;0.30;;;;;;;24.74;64.99;102498.22;5053884;28;20079;-67
2022/04/30 11:18:11;;;;;;;0.82;0.22;;;;;;;24.73;64.64;102491.00;5055220;28;20025;-67
2022/04/30 11:20:36;;;;;;;1.42;0.20;;;;;;;24.75;65.13;102489.78;5057471;28;20036;-67
2022/04/30 11:23:02;;;;;;;1.17;0.38;;;;;;;24.71;64.61;102482.94;5053788;28;20028;-67
2022/04/30 11:25:38;;;;;;;0.40;0.30;;;;;;;24.72;65.03;102487.41;5055867;28;20021;-66
2022/04/30 11:28:08;;;;;;;0.88;0.30;;;;;;;24.73;65.02;102491.88;5060749;28;20088;-66
2022/04/30 11:30:37;;;;;;;0.90;0.32;;;;;;;24.76;64.77;102483.25;5055522;28;20460;-68
2022/04/30 11:33:04;;;;;;;0.60;0.32;;;;;;;24.76;65.04;102488.75;5053615;28;20124;-67
2022/04/30 11:35:29;;;;;;;0.75;0.45;;;;;;;24.73;65.09;102480.88;5054702;28;20100;-67
2022/04/30 11:37:55;;;;;;;0.65;0.63;;;;;;;24.73;65.09;102480.88;5054752;28;20111;-67
2022/04/30 11:40:22;;;;;;;0.25;0.20;;;;;;;24.75;64.76;102489.78;5053311;28;20056;-68
2022/04/30 11:42:58;;;;;;;0.60;0.28;;;;;;;24.76;65.05;102491.50;5054686;28;20024;-67
2022/04/30 11:45:29;;;;;;;0.70;0.35;;;;;;;24.74;65.29;102490.84;5053075;28;20029;-67
2022/04/30 11:47:58;;;;;;;0.70;0.20;;;;;;;24.74;64.77;102493.59;5053597;28;20438;-67
2022/04/30 11:50:25;;;;;;;0.57;0.20;;;;;;;24.74;64.92;102488.09;5054281;28;20425;-67
2022/04/30 11:52:51;;;;;;;0.82;0.32;;;;;;;24.74;64.90;102493.59;5056745;28;20021;-67
2022/04/30 11:55:17;;;;;;;0.88;0.35;;;;;;;24.75;64.78;102495.28;5054335;28;20510;-67